Time;durP1;ratioP1;P1;durP2;ratioP2;P2;SDS_P1;SDS_P2;PMS_P1;PMS_P2;Temp;Humidity;BMP_temperature;BMP_pressure;BME280_temperature;BME280_humidity;BME280_pressure;Samples;Min_cycle;Max_cycle;Signal;HPM_P1;HPM_P2
2022/04/04 00:00:46;;;;;;;5.72;3.15;;;2.00;99.90;;;;;;5033929;28;20048;-74
2022/04/04 00:03:12;;;;;;;6.77;3.83;;;1.90;99.90;;;;;;5034022;28;20053;-75
2022/04/04 00:05:38;;;;;;;8.00;3.30;;;1.90;99.90;;;;;;5033988;28;20280;-76
2022/04/04 00:08:05;;;;;;;11.00;3.90;;;1.90;99.90;;;;;;5033933;28;20037;-78
2022/04/04 00:10:31;;;;;;;5.22;3.70;;;1.90;99.90;;;;;;5033818;28;20049;-75
2022/04/04 00:12:56;;;;;;;8.18;3.78;;;1.90;99.90;;;;;;5016502;28;20053;-75
2022/04/04 00:15:22;;;;;;;6.03;3.17;;;1.80;99.90;;;;;;5033958;28;20460;-75
2022/04/04 00:17:47;;;;;;;8.90;3.33;;;1.80;99.90;;;;;;5033767;28;20076;-76
2022/04/04 00:20:14;;;;;;;5.40;3.28;;;1.80;99.90;;;;;;5033550;28;20393;-75
2022/04/04 00:22:41;;;;;;;9.83;3.40;;;1.80;99.90;;;;;;5033808;28;20042;-75
2022/04/04 00:25:07;;;;;;;6.53;3.30;;;1.90;99.90;;;;;;5033863;28;20056;-77
2022/04/04 00:27:33;;;;;;;5.13;2.95;;;1.80;99.90;;;;;;5033600;28;20485;-75
2022/04/04 00:29:58;;;;;;;9.05;3.53;;;1.80;99.90;;;;;;5033160;28;20080;-74
2022/04/04 00:32:24;;;;;;;6.70;3.20;;;1.80;99.90;;;;;;5033629;28;20569;-77
2022/04/04 00:34:49;;;;;;;6.05;3.65;;;1.80;99.90;;;;;;5033643;28;20068;-75
2022/04/04 00:37:15;;;;;;;5.25;3.15;;;1.70;99.90;;;;;;5033680;28;20033;-77
2022/04/04 00:39:41;;;;;;;5.88;3.13;;;1.80;99.90;;;;;;5033620;28;20089;-75
2022/04/04 00:42:07;;;;;;;6.15;3.33;;;1.80;99.90;;;;;;5033492;28;20124;-75
2022/04/04 00:44:33;;;;;;;7.10;3.47;;;1.80;99.90;;;;;;5033464;28;20128;-75
2022/04/04 00:46:58;;;;;;;8.13;4.22;;;1.80;99.90;;;;;;5033401;28;20187;-75
2022/04/04 00:49:24;;;;;;;5.45;3.30;;;1.80;99.90;;;;;;5033523;28;20045;-74
2022/04/04 00:51:50;;;;;;;4.85;3.35;;;1.90;99.90;;;;;;5033592;28;20470;-74
2022/04/04 00:54:16;;;;;;;5.78;3.40;;;1.80;99.90;;;;;;5033566;28;20131;-75
2022/04/04 00:56:42;;;;;;;4.97;3.25;;;1.80;99.90;;;;;;5033429;28;20112;-77
2022/04/04 00:59:12;;;;;;;7.38;3.60;;;1.90;99.90;;;;;;5033576;28;20038;-76
2022/04/04 01:01:37;;;;;;;6.22;3.40;;;1.90;99.90;;;;;;5033337;28;20400;-77
2022/04/04 01:04:03;;;;;;;7.93;3.72;;;1.90;99.90;;;;;;5033826;28;20129;-76
2022/04/04 01:06:29;;;;;;;6.13;3.78;;;2.00;99.90;;;;;;5033362;28;20076;-75
2022/04/04 01:08:54;;;;;;;8.60;3.65;;;2.00;99.90;;;;;;5033215;28;20129;-75
2022/04/04 01:11:20;;;;;;;5.70;3.70;;;2.00;99.90;;;;;;5033330;28;20049;-77
2022/04/04 01:13:46;;;;;;;5.97;3.70;;;2.10;99.90;;;;;;5033333;28;20048;-74
2022/04/04 01:16:12;;;;;;;7.85;3.85;;;2.20;99.90;;;;;;5033261;28;20084;-75
2022/04/04 01:18:38;;;;;;;8.25;3.90;;;2.20;99.90;;;;;;5033279;28;20076;-74
2022/04/04 01:21:04;;;;;;;6.78;4.13;;;2.30;99.90;;;;;;5033256;28;20104;-76
2022/04/04 01:23:38;;;;;;;6.35;4.35;;;2.30;99.90;;;;;;5033410;28;20127;-76
2022/04/04 01:26:03;;;;;;;7.78;5.00;;;2.40;99.90;;;;;;5033259;28;20478;-78
2022/04/04 01:28:29;;;;;;;8.48;4.78;;;2.40;99.90;;;;;;5033145;28;20038;-76
2022/04/04 01:30:55;;;;;;;6.95;4.75;;;2.50;99.90;;;;;;5033270;28;20519;-76
2022/04/04 01:33:21;;;;;;;10.80;5.53;;;2.50;99.90;;;;;;5033151;28;20076;-77
2022/04/04 01:35:47;;;;;;;9.38;5.43;;;2.50;99.90;;;;;;5033132;28;20180;-74
2022/04/04 01:38:12;;;;;;;13.07;7.07;;;2.50;99.90;;;;;;5033047;28;20128;-75
2022/04/04 01:40:38;;;;;;;10.73;6.05;;;2.60;99.90;;;;;;5034430;28;20060;-77
2022/04/04 01:43:04;;;;;;;9.20;6.18;;;2.60;99.90;;;;;;5036641;28;20428;-75
2022/04/04 01:48:14;;;;;;;10.27;6.78;;;2.70;99.90;;;;;;5036873;28;20136;-75
2022/04/04 01:50:39;;;;;;;11.60;6.65;;;2.70;99.90;;;;;;5036471;28;20549;-77
2022/04/04 01:55:49;;;;;;;10.60;6.50;;;2.70;99.90;;;;;;5036423;28;20049;-73
2022/04/04 01:58:15;;;;;;;9.05;6.45;;;2.70;99.90;;;;;;5036345;28;20038;-75
2022/04/04 02:00:40;;;;;;;12.57;6.47;;;2.70;99.90;;;;;;5036756;28;20054;-76
2022/04/04 02:03:06;;;;;;;11.40;6.72;;;2.70;99.90;;;;;;5036286;28;20046;-76
2022/04/04 02:05:32;;;;;;;9.77;6.25;;;2.80;99.90;;;;;;5036228;28;20516;-77
2022/04/04 02:07:57;;;;;;;9.75;6.00;;;2.80;99.90;;;;;;5036105;28;20033;-75
2022/04/04 02:10:23;;;;;;;8.88;5.68;;;2.80;99.90;;;;;;5036195;28;20199;-76
2022/04/04 02:12:48;;;;;;;13.60;6.80;;;2.80;99.90;;;;;;5035780;28;20115;-75
2022/04/04 02:15:14;;;;;;;12.27;6.03;;;2.80;99.90;;;;;;5036157;28;20047;-74
2022/04/04 02:17:40;;;;;;;8.82;5.75;;;2.80;99.90;;;;;;5036013;28;20041;-74
2022/04/04 02:20:08;;;;;;;10.20;6.10;;;2.80;99.90;;;;;;5036072;28;20409;-76
2022/04/04 02:22:33;;;;;;;11.73;6.03;;;2.80;99.90;;;;;;5035523;28;20048;-76
2022/04/04 02:24:59;;;;;;;9.77;6.32;;;2.90;99.90;;;;;;5035868;28;20084;-76
2022/04/04 02:27:25;;;;;;;10.27;6.63;;;2.80;99.90;;;;;;5035721;28;20037;-77
2022/04/04 02:29:51;;;;;;;9.70;6.22;;;2.80;99.90;;;;;;5035852;28;20097;-75
2022/04/04 02:32:17;;;;;;;8.80;6.68;;;2.80;99.90;;;;;;5035752;28;20092;-76
2022/04/04 02:34:42;;;;;;;11.57;6.50;;;2.80;99.90;;;;;;5035683;28;20045;-77
2022/04/04 02:37:08;;;;;;;10.50;7.10;;;2.80;99.90;;;;;;5035588;28;20050;-75
2022/04/04 02:39:34;;;;;;;14.63;8.07;;;2.80;99.90;;;;;;5035638;28;20054;-77
2022/04/04 02:42:00;;;;;;;9.68;6.80;;;2.80;99.90;;;;;;5035526;28;20048;-75
2022/04/04 02:44:26;;;;;;;11.48;6.88;;;2.80;99.90;;;;;;5035501;28;20076;-78
2022/04/04 02:46:51;;;;;;;12.03;7.50;;;2.80;99.90;;;;;;5035424;28;20106;-76
2022/04/04 02:49:17;;;;;;;11.40;7.22;;;2.50;99.90;;;;;;5035296;28;20046;-74
2022/04/04 02:51:42;;;;;;;12.57;7.15;;;2.80;99.90;;;;;;5034805;28;20136;-74
2022/04/04 02:54:08;;;;;;;12.80;7.53;;;2.80;99.90;;;;;;5035270;28;20041;-76
2022/04/04 02:56:36;;;;;;;14.02;7.28;;;2.80;99.90;;;;;;5035162;28;20049;-77
2022/04/04 02:59:02;;;;;;;12.80;8.10;;;2.80;99.90;;;;;;5035141;28;20077;-76
2022/04/04 03:01:29;;;;;;;12.77;8.23;;;2.90;99.90;;;;;;5035315;28;20045;-76
2022/04/04 03:03:55;;;;;;;14.60;8.55;;;2.90;99.90;;;;;;5035115;28;20042;-77
2022/04/04 03:06:21;;;;;;;12.25;7.90;;;2.90;99.90;;;;;;5017340;28;20065;-74
2022/04/04 03:08:47;;;;;;;18.63;8.45;;;2.90;99.90;;;;;;5034970;28;20540;-76
2022/04/04 03:11:12;;;;;;;13.23;8.10;;;2.90;99.90;;;;;;5034693;28;20096;-76
2022/04/04 03:13:38;;;;;;;14.73;8.57;;;2.90;99.90;;;;;;5035373;28;20128;-75
2022/04/04 03:16:04;;;;;;;16.05;9.27;;;3.00;99.90;;;;;;5034888;28;20128;-78
2022/04/04 03:18:30;;;;;;;15.77;8.60;;;3.00;99.90;;;;;;5034830;28;20043;-75
2022/04/04 03:20:55;;;;;;;20.27;9.88;;;3.00;99.90;;;;;;5034736;28;20366;-73
2022/04/04 03:23:22;;;;;;;16.63;9.65;;;3.10;99.90;;;;;;5034762;28;20055;-76
2022/04/04 03:25:48;;;;;;;14.75;8.68;;;3.10;99.90;;;;;;5034678;28;20049;-77
2022/04/04 03:28:13;;;;;;;15.73;9.20;;;3.10;99.90;;;;;;5035005;28;20484;-76
2022/04/04 03:30:39;;;;;;;15.93;8.98;;;3.20;99.90;;;;;;5034521;28;20473;-78
2022/04/04 03:33:05;;;;;;;16.85;9.45;;;3.20;99.90;;;;;;5034518;28;20050;-77
2022/04/04 03:35:32;;;;;;;15.93;9.27;;;3.20;99.90;;;;;;5034567;28;20057;-77
2022/04/04 03:38:00;;;;;;;20.75;9.15;;;3.20;99.90;;;;;;5034479;28;20052;-78
2022/04/04 03:40:26;;;;;;;14.75;8.93;;;3.20;99.90;;;;;;5034406;28;20051;-74
2022/04/04 03:42:53;;;;;;;15.13;9.35;;;3.30;99.90;;;;;;5034866;28;20473;-76
2022/04/04 03:45:19;;;;;;;14.52;9.00;;;3.20;99.90;;;;;;5034261;28;20045;-75
2022/04/04 03:47:46;;;;;;;12.63;8.75;;;3.30;99.90;;;;;;5034566;28;20042;-76
2022/04/04 03:50:13;;;;;;;17.00;9.53;;;3.30;99.90;;;;;;5016862;28;20140;-75
2022/04/04 03:52:41;;;;;;;14.73;9.43;;;3.40;99.90;;;;;;5034082;28;20052;-76
2022/04/04 03:55:07;;;;;;;14.52;9.48;;;3.40;99.90;;;;;;5033957;28;20049;-76
2022/04/04 03:57:33;;;;;;;13.77;8.93;;;3.40;99.90;;;;;;5034219;28;20049;-74
2022/04/04 03:59:59;;;;;;;15.25;8.70;;;3.40;99.90;;;;;;5034099;28;20052;-76
2022/04/04 04:02:25;;;;;;;15.73;8.70;;;3.40;99.90;;;;;;5034162;28;20412;-75
2022/04/04 04:04:50;;;;;;;14.52;8.73;;;3.40;99.90;;;;;;5015734;28;20288;-76
2022/04/04 04:07:18;;;;;;;15.10;9.45;;;3.50;99.90;;;;;;5033778;28;20060;-77
2022/04/04 04:09:44;;;;;;;17.23;8.95;;;3.40;99.90;;;;;;5033771;28;20049;-77
2022/04/04 04:12:15;;;;;;;13.20;8.18;;;3.40;99.90;;;;;;5034021;28;20050;-77
2022/04/04 04:14:41;;;;;;;16.88;8.90;;;3.40;99.90;;;;;;5033583;28;20041;-77
2022/04/04 04:17:08;;;;;;;16.73;8.63;;;3.50;99.90;;;;;;5033658;28;20042;-77
2022/04/04 04:22:20;;;;;;;14.45;8.90;;;3.40;99.90;;;;;;5033269;28;20050;-76
2022/04/04 04:24:45;;;;;;;16.92;8.48;;;3.50;99.90;;;;;;5034331;28;20037;-76
2022/04/04 04:27:12;;;;;;;14.98;9.05;;;3.50;99.90;;;;;;5033670;28;20543;-74
2022/04/04 04:29:38;;;;;;;12.68;8.68;;;3.50;99.90;;;;;;5033545;28;20053;-75
2022/04/04 04:32:04;;;;;;;15.43;9.23;;;3.60;99.90;;;;;;5033716;28;20107;-73
2022/04/04 04:34:30;;;;;;;18.15;9.43;;;3.60;99.90;;;;;;5033669;28;20037;-76
2022/04/04 04:36:56;;;;;;;14.23;8.95;;;3.60;99.90;;;;;;5033588;28;20379;-75
2022/04/04 04:39:22;;;;;;;12.90;8.93;;;3.60;99.90;;;;;;5033605;28;20488;-76
2022/04/04 04:41:49;;;;;;;15.93;8.57;;;3.60;99.90;;;;;;5033968;28;20045;-76
2022/04/04 04:44:15;;;;;;;14.82;9.55;;;3.60;99.90;;;;;;5033544;28;20433;-74
2022/04/04 04:46:40;;;;;;;12.48;8.52;;;3.60;99.90;;;;;;5033584;28;20053;-76
2022/04/04 04:49:06;;;;;;;15.35;8.90;;;3.60;99.90;;;;;;5033388;28;20124;-77
2022/04/04 04:51:32;;;;;;;15.43;9.63;;;3.60;99.90;;;;;;5033353;28;20477;-74
2022/04/04 04:53:57;;;;;;;15.13;8.43;;;3.60;99.90;;;;;;5015951;28;20048;-77
2022/04/04 04:56:25;;;;;;;14.48;9.93;;;3.60;99.90;;;;;;5033793;28;20041;-74
2022/04/04 04:58:51;;;;;;;20.52;9.65;;;3.60;99.90;;;;;;5033446;28;20053;-74
2022/04/04 05:01:16;;;;;;;14.90;10.40;;;3.60;99.90;;;;;;5033484;28;20133;-74
2022/04/04 05:03:42;;;;;;;21.38;11.43;;;3.60;99.90;;;;;;5033309;28;20077;-74
2022/04/04 05:06:08;;;;;;;19.40;10.20;;;3.60;99.90;;;;;;5033203;28;20504;-74
2022/04/04 05:08:34;;;;;;;19.83;11.13;;;3.60;99.90;;;;;;5033323;28;20095;-76
2022/04/04 05:11:00;;;;;;;16.52;10.35;;;3.60;99.90;;;;;;5033258;28;20041;-74
2022/04/04 05:13:26;;;;;;;16.42;11.07;;;3.60;99.90;;;;;;5033353;28;20125;-74
2022/04/04 05:15:54;;;;;;;17.08;10.27;;;3.60;99.90;;;;;;5035130;28;20045;-76
2022/04/04 05:18:20;;;;;;;21.92;11.88;;;3.60;99.90;;;;;;5037064;28;20126;-75
2022/04/04 05:20:46;;;;;;;16.17;11.85;;;3.60;99.90;;;;;;5036988;28;20089;-77
2022/04/04 05:23:13;;;;;;;15.82;10.68;;;3.50;99.90;;;;;;5037523;28;20128;-76
2022/04/04 05:25:39;;;;;;;20.15;10.70;;;3.60;99.90;;;;;;5036937;28;20386;-74
2022/04/04 05:28:07;;;;;;;14.80;10.75;;;3.60;99.90;;;;;;5037201;28;20049;-75
2022/04/04 05:30:34;;;;;;;15.65;11.00;;;3.50;99.90;;;;;;5036531;28;20057;-74
2022/04/04 05:32:59;;;;;;;19.42;10.32;;;3.60;99.90;;;;;;5036972;28;20041;-74
2022/04/04 05:35:25;;;;;;;16.38;9.57;;;3.60;99.90;;;;;;5036733;28;20079;-73
2022/04/04 05:37:54;;;;;;;17.40;9.90;;;3.60;99.90;;;;;;5036693;28;20044;-74
2022/04/04 05:40:26;;;;;;;19.02;10.95;;;3.60;99.90;;;;;;5036512;28;20059;-75
2022/04/04 05:42:53;;;;;;;17.50;9.63;;;3.60;99.90;;;;;;5037133;28;20131;-74
2022/04/04 05:45:18;;;;;;;16.15;10.52;;;3.60;99.90;;;;;;5036597;28;20045;-76
2022/04/04 05:47:44;;;;;;;16.10;9.20;;;3.60;99.90;;;;;;5036214;28;20132;-76
2022/04/04 05:50:10;;;;;;;15.68;10.07;;;3.60;99.90;;;;;;5036484;28;20050;-75
2022/04/04 05:52:36;;;;;;;15.68;9.50;;;4.00;99.90;;;;;;5036546;28;20116;-75
2022/04/04 05:55:05;;;;;;;16.30;9.63;;;3.70;99.90;;;;;;5036895;28;20103;-72
2022/04/04 05:57:35;;;;;;;12.90;9.32;;;3.70;99.90;;;;;;5036257;28;20366;-74
2022/04/04 06:00:01;;;;;;;12.77;9.60;;;3.70;99.90;;;;;;5036348;28;20048;-75
2022/04/04 06:02:27;;;;;;;14.52;9.38;;;3.70;99.90;;;;;;5036488;28;20046;-75
2022/04/04 06:04:53;;;;;;;14.35;9.20;;;3.70;99.90;;;;;;5036113;28;20049;-74
2022/04/04 06:07:19;;;;;;;15.60;9.20;;;3.80;99.90;;;;;;5036133;28;20056;-74
2022/04/04 06:09:45;;;;;;;13.82;9.00;;;3.80;99.90;;;;;;5036196;28;20292;-73
2022/04/04 06:12:11;;;;;;;16.23;9.27;;;3.80;99.90;;;;;;5036401;28;20049;-74
2022/04/04 06:14:37;;;;;;;11.60;8.33;;;3.80;99.90;;;;;;5036092;28;20491;-76
2022/04/04 06:17:07;;;;;;;13.23;8.52;;;3.90;99.90;;;;;;5036004;28;20057;-76
2022/04/04 06:19:34;;;;;;;11.93;8.30;;;3.90;99.90;;;;;;5030759;28;20049;-74
2022/04/04 06:22:00;;;;;;;16.02;9.35;;;4.00;99.90;;;;;;5018404;28;20045;-74
2022/04/04 06:24:25;;;;;;;16.93;8.87;;;4.00;99.90;;;;;;5035911;28;20053;-75
2022/04/04 06:26:51;;;;;;;12.43;7.85;;;4.10;99.90;;;;;;5034935;28;20126;-76
2022/04/04 06:29:16;;;;;;;15.93;9.18;;;4.10;99.90;;;;;;5034541;28;20037;-75
2022/04/04 06:31:44;;;;;;;12.07;8.65;;;4.20;99.90;;;;;;5035859;28;20061;-76
2022/04/04 06:34:10;;;;;;;12.63;8.20;;;4.20;99.90;;;;;;5035630;28;20091;-74
2022/04/04 06:36:38;;;;;;;13.45;7.97;;;4.30;99.90;;;;;;5035647;28;20089;-75
2022/04/04 06:39:05;;;;;;;10.70;7.75;;;4.30;99.90;;;;;;5036004;28;20045;-76
2022/04/04 06:41:32;;;;;;;12.90;8.55;;;4.40;99.90;;;;;;5035308;28;20497;-75
2022/04/04 06:43:58;;;;;;;14.68;8.05;;;4.40;99.90;;;;;;5035625;28;20374;-75
2022/04/04 06:46:25;;;;;;;13.88;8.43;;;;;;;;;;5035523;28;20095;-75
2022/04/04 06:48:51;;;;;;;12.52;8.07;;;4.50;99.90;;;;;;5035357;28;20523;-75
2022/04/04 06:51:18;;;;;;;14.98;8.55;;;4.50;99.90;;;;;;5035372;28;20080;-75
2022/04/04 06:53:45;;;;;;;11.90;7.65;;;4.70;99.90;;;;;;5035385;28;20041;-74
2022/04/04 06:56:11;;;;;;;12.32;8.20;;;4.60;99.90;;;;;;5035356;28;20060;-76
2022/04/04 06:58:36;;;;;;;17.73;8.77;;;4.70;99.90;;;;;;5035335;28;20053;-75
2022/04/04 07:01:02;;;;;;;11.10;7.97;;;4.70;99.90;;;;;;5034199;28;20034;-74
2022/04/04 07:03:28;;;;;;;12.65;8.05;;;4.80;99.90;;;;;;5035508;28;20056;-74
2022/04/04 07:05:53;;;;;;;9.75;7.30;;;4.90;99.90;;;;;;5035160;28;20049;-75
2022/04/04 07:08:19;;;;;;;11.20;7.55;;;5.00;99.90;;;;;;5034815;28;20048;-76
2022/04/04 07:10:44;;;;;;;11.60;7.72;;;5.10;99.90;;;;;;5034988;28;20045;-76
2022/04/04 07:13:10;;;;;;;11.77;7.38;;;5.10;99.90;;;;;;5034969;28;20045;-75
2022/04/04 07:15:36;;;;;;;12.80;7.47;;;5.20;99.90;;;;;;5034969;28;20049;-76
2022/04/04 07:18:02;;;;;;;9.75;7.05;;;5.30;99.90;;;;;;5034800;28;20393;-75
2022/04/04 07:20:28;;;;;;;14.10;6.53;;;5.30;99.90;;;;;;5034755;28;20045;-75
2022/04/04 07:22:54;;;;;;;12.38;6.97;;;5.30;99.90;;;;;;5035115;28;20052;-76
2022/04/04 07:25:21;;;;;;;12.77;7.50;;;5.40;99.90;;;;;;5034803;28;20048;-77
2022/04/04 07:27:48;;;;;;;13.75;8.13;;;5.40;99.90;;;;;;5034435;28;20661;-75
2022/04/04 07:30:19;;;;;;;11.10;7.32;;;5.40;99.90;;;;;;5034654;28;20057;-75
2022/04/04 07:32:46;;;;;;;14.07;7.20;;;5.40;99.90;;;;;;5034592;28;20045;-75
2022/04/04 07:35:12;;;;;;;12.85;8.05;;;5.40;99.90;;;;;;5051571;28;20404;-76
2022/04/04 07:37:42;;;;;;;11.35;7.75;;;5.30;99.90;;;;;;5054748;28;20037;-76
2022/04/04 07:40:10;;;;;;;13.73;7.75;;;5.30;99.90;;;;;;5036717;28;20043;-76
2022/04/04 07:42:38;;;;;;;13.63;7.68;;;5.30;99.90;;;;;;5054434;28;20040;-76
2022/04/04 07:45:07;;;;;;;13.55;8.15;;;5.30;99.90;;;;;;5054243;28;20110;-76
2022/04/04 07:47:34;;;;;;;10.75;8.45;;;5.20;99.90;;;;;;5054591;28;20072;-77
2022/04/04 07:49:59;;;;;;;13.05;8.35;;;5.20;99.90;;;;;;5036515;28;20103;-77
2022/04/04 07:52:26;;;;;;;10.57;8.30;;;5.20;99.90;;;;;;5054195;28;20048;-77
2022/04/04 07:54:53;;;;;;;12.65;8.60;;;5.20;99.90;;;;;;5054100;28;20354;-78
2022/04/04 07:57:19;;;;;;;12.02;8.88;;;5.20;99.90;;;;;;5054128;28;20049;-79
2022/04/04 07:59:45;;;;;;;13.13;8.73;;;5.20;99.90;;;;;;5054024;28;20052;-77
2022/04/04 08:02:12;;;;;;;15.07;7.68;;;5.20;99.90;;;;;;5054023;28;20480;-76
2022/04/04 08:04:38;;;;;;;11.68;8.85;;;5.20;99.90;;;;;;5054006;28;20041;-76
2022/04/04 08:07:04;;;;;;;11.82;8.85;;;5.20;99.90;;;;;;5053936;28;20064;-78
2022/04/04 08:09:30;;;;;;;15.47;8.97;;;5.10;99.90;;;;;;5053895;28;20090;-76
2022/04/04 08:11:56;;;;;;;10.93;8.98;;;5.10;99.90;;;;;;5053674;28;20049;-77
2022/04/04 08:14:22;;;;;;;12.65;8.20;;;5.20;99.90;;;;;;5053779;28;20049;-75
2022/04/04 08:16:48;;;;;;;12.63;8.85;;;5.20;99.90;;;;;;5054366;28;20037;-76
2022/04/04 08:19:15;;;;;;;15.73;9.63;;;5.10;99.90;;;;;;5053742;28;20041;-76
2022/04/04 08:21:44;;;;;;;13.18;9.27;;;5.10;99.90;;;;;;5053705;28;20102;-76
2022/04/04 08:24:11;;;;;;;12.93;9.68;;;5.10;99.90;;;;;;5053715;28;20036;-75
2022/04/04 08:26:37;;;;;;;14.13;9.30;;;5.10;99.90;;;;;;5053757;28;20049;-76
2022/04/04 08:29:03;;;;;;;12.63;9.70;;;5.10;99.90;;;;;;5053494;28;20045;-76
2022/04/04 08:31:28;;;;;;;12.63;9.18;;;5.10;99.90;;;;;;5054090;28;20068;-75
2022/04/04 08:33:54;;;;;;;17.85;10.55;;;5.10;99.90;;;;;;5053607;28;20059;-74
2022/04/04 08:36:20;;;;;;;13.25;9.65;;;5.00;99.90;;;;;;5053553;28;20477;-77
2022/04/04 08:38:46;;;;;;;13.75;9.45;;;5.00;99.90;;;;;;5053559;28;20083;-75
2022/04/04 08:41:12;;;;;;;13.90;10.18;;;5.00;99.90;;;;;;5053548;28;20044;-76
2022/04/04 08:43:47;;;;;;;15.25;10.80;;;5.00;99.90;;;;;;5053395;28;20045;-75
2022/04/04 08:46:15;;;;;;;14.43;9.40;;;5.00;99.90;;;;;;5053669;28;20508;-75
2022/04/04 08:48:41;;;;;;;15.45;10.20;;;5.00;99.90;;;;;;5053392;28;20047;-76
2022/04/04 08:51:08;;;;;;;14.43;9.93;;;5.00;99.90;;;;;;5055767;28;20123;-74
2022/04/04 08:53:37;;;;;;;;;;;5.00;99.90;;;;;;5057869;28;20492;-75
2022/04/04 08:56:04;;;;;;;15.32;10.43;;;5.00;99.90;;;;;;5057369;28;19966;-75
2022/04/04 08:58:31;;;;;;;14.35;9.90;;;5.00;99.90;;;;;;5040070;28;20044;-74
2022/04/04 09:00:57;;;;;;;14.48;10.98;;;5.00;99.90;;;;;;5057445;28;20048;-74
2022/04/04 09:03:29;;;;;;;16.33;11.27;;;5.00;99.90;;;;;;5057283;28;20053;-76
2022/04/04 09:05:57;;;;;;;17.42;10.65;;;5.10;99.90;;;;;;5057372;28;20048;-76
2022/04/04 09:08:23;;;;;;;18.63;11.55;;;5.10;99.90;;;;;;5057293;28;20134;-75
2022/04/04 09:10:54;;;;;;;16.10;11.07;;;5.10;99.90;;;;;;5057159;28;20496;-75
2022/04/04 09:13:21;;;;;;;14.48;10.18;;;5.10;99.90;;;;;;5057278;28;20052;-77
2022/04/04 09:15:58;;;;;;;15.25;10.30;;;5.10;99.90;;;;;;5057509;28;20048;-76
2022/04/04 09:18:45;;;;;;;15.43;10.27;;;5.00;99.90;;;;;;5057128;28;20135;-76
2022/04/04 09:21:20;;;;;;;12.30;8.75;;;5.10;99.90;;;;;;5056785;28;20111;-76
2022/04/04 09:23:45;;;;;;;11.55;8.57;;;5.10;99.90;;;;;;5057002;28;20500;-77
2022/04/04 09:26:30;;;;;;;10.07;7.93;;;5.10;99.90;;;;;;5057230;28;20045;-76
2022/04/04 09:28:58;;;;;;;12.43;7.18;;;5.20;99.90;;;;;;5056729;28;20043;-77
2022/04/04 09:31:24;;;;;;;9.70;7.07;;;5.30;99.90;;;;;;5056990;28;20057;-76
2022/04/04 09:33:51;;;;;;;8.90;6.85;;;5.30;99.90;;;;;;5056768;28;20045;-76
2022/04/04 09:36:16;;;;;;;10.40;6.75;;;5.30;99.90;;;;;;5057236;28;20128;-77
2022/04/04 09:39:15;;;;;;;8.95;6.65;;;5.30;99.90;;;;;;5056694;28;20076;-77
2022/04/04 09:41:41;;;;;;;10.43;6.63;;;5.40;99.90;;;;;;5012999;28;20412;-76
2022/04/04 09:44:13;;;;;;;10.05;6.90;;;5.30;99.90;;;;;;5056623;28;20041;-75
2022/04/04 09:46:45;;;;;;;9.45;6.43;;;5.30;99.90;;;;;;5038861;28;20045;-76
2022/04/04 09:49:12;;;;;;;12.82;7.00;;;5.40;99.90;;;;;;5056556;28;20037;-77
2022/04/04 09:51:41;;;;;;;;;;;5.40;99.90;;;;;;5056623;28;20041;-77
2022/04/04 09:54:14;;;;;;;9.13;6.57;;;5.40;99.90;;;;;;5056387;28;19921;-77
2022/04/04 09:56:40;;;;;;;8.82;6.40;;;5.40;99.90;;;;;;5056416;28;20045;-76
2022/04/04 09:59:06;;;;;;;10.65;6.90;;;5.50;99.90;;;;;;5056330;28;20033;-76
2022/04/04 10:01:33;;;;;;;8.55;6.60;;;5.40;99.90;;;;;;5055221;28;20055;-75
2022/04/04 10:04:01;;;;;;;8.23;6.38;;;5.40;99.90;;;;;;5056026;28;20084;-75
2022/04/04 10:06:31;;;;;;;7.82;6.15;;;5.40;99.90;;;;;;5056155;28;20051;-76
2022/04/04 10:08:58;;;;;;;7.47;5.90;;;5.40;99.90;;;;;;5056322;28;20049;-76
2022/04/04 10:11:25;;;;;;;9.52;5.88;;;5.40;99.90;;;;;;5056147;28;20393;-76
2022/04/04 10:13:52;;;;;;;8.50;6.95;;;5.40;99.90;;;;;;5056778;28;20049;-75
2022/04/04 10:16:19;;;;;;;8.55;6.88;;;5.40;99.90;;;;;;5056814;28;20041;-74
2022/04/04 10:18:46;;;;;;;7.00;5.80;;;5.40;99.90;;;;;;5056714;28;20045;-74
2022/04/04 10:21:12;;;;;;;7.55;5.45;;;5.40;99.90;;;;;;5055822;28;20507;-75
2022/04/04 10:23:40;;;;;;;6.80;5.15;;;5.40;99.90;;;;;;5056024;28;20048;-74
2022/04/04 10:26:09;;;;;;;5.28;4.63;;;5.40;99.90;;;;;;5055428;28;20496;-74
2022/04/04 10:28:37;;;;;;;7.05;5.00;;;5.50;99.90;;;;;;5055709;28;20041;-75
2022/04/04 10:31:18;;;;;;;6.78;4.80;;;5.50;99.90;;;;;;5055855;28;20096;-76
2022/04/04 10:33:45;;;;;;;7.05;4.70;;;5.50;99.90;;;;;;5055767;28;20051;-75
2022/04/04 10:36:16;;;;;;;5.97;4.82;;;5.50;99.90;;;;;;5055972;28;20049;-75
2022/04/04 10:38:44;;;;;;;5.28;4.00;;;5.50;99.90;;;;;;5055574;28;20051;-75
2022/04/04 10:41:13;;;;;;;5.40;3.75;;;5.50;99.90;;;;;;5055563;28;20137;-74
2022/04/04 10:43:40;;;;;;;4.75;4.13;;;5.50;99.90;;;;;;5055960;28;20088;-74
2022/04/04 10:46:10;;;;;;;4.57;3.63;;;5.50;99.90;;;;;;5055529;28;20127;-74
2022/04/04 10:48:59;;;;;;;5.80;4.45;;;5.60;99.90;;;;;;5055580;28;20041;-73
2022/04/04 10:51:32;;;;;;;5.18;3.90;;;5.50;99.90;;;;;;5043707;28;20061;-73
2022/04/04 10:54:02;;;;;;;4.22;3.70;;;5.60;99.90;;;;;;5055343;28;20052;-74
2022/04/04 10:56:31;;;;;;;5.78;4.03;;;5.60;99.90;;;;;;5055305;28;20055;-74
2022/04/04 10:59:15;;;;;;;5.65;4.35;;;5.60;99.90;;;;;;5055413;28;20037;-74
2022/04/04 11:01:48;;;;;;;5.28;3.95;;;5.70;99.90;;;;;;5055110;28;20056;-74
2022/04/04 11:04:30;;;;;;;7.13;4.43;;;5.70;99.90;;;;;;5055230;28;20405;-74
2022/04/04 11:10:42;;;;;;;5.47;3.70;;;5.70;99.90;;;;;;5054964;28;20515;-74
2022/04/04 11:13:14;;;;;;;6.07;4.30;;;5.70;99.90;;;;;;5027185;28;20146;-75
2022/04/04 11:15:53;;;;;;;6.18;4.32;;;5.80;99.90;;;;;;5054991;28;20098;-76
2022/04/04 11:18:39;;;;;;;6.35;4.47;;;5.80;99.90;;;;;;5054795;28;20099;-75
2022/04/04 11:21:05;;;;;;;5.95;4.25;;;5.80;99.90;;;;;;5013616;28;20057;-76
2022/04/04 11:23:34;;;;;;;5.53;4.38;;;5.90;99.90;;;;;;5054714;28;20493;-75
2022/04/04 11:26:08;;;;;;;6.88;4.18;;;5.90;99.90;;;;;;5054459;28;20489;-75
2022/04/04 11:28:42;;;;;;;6.35;4.18;;;5.90;99.90;;;;;;5054592;28;20100;-73
2022/04/04 11:31:30;;;;;;;5.55;4.10;;;5.90;99.90;;;;;;5054674;28;20061;-75
2022/04/04 11:33:56;;;;;;;6.82;4.22;;;6.00;99.90;;;;;;5042730;28;20057;-73
2022/04/04 11:36:31;;;;;;;7.72;4.10;;;6.00;99.90;;;;;;5055306;28;20102;-74
2022/04/04 11:39:20;;;;;;;5.80;4.40;;;6.00;99.90;;;;;;5055458;28;20519;-75
2022/04/04 11:42:12;;;;;;;5.40;4.40;;;6.00;99.90;;;;;;5057018;28;20473;-73
2022/04/04 11:44:46;;;;;;;5.57;4.00;;;6.10;99.90;;;;;;5057294;28;20048;-75
2022/04/04 11:47:12;;;;;;;5.78;3.78;;;6.10;99.90;;;;;;5056479;28;20056;-75
2022/04/04 11:49:42;;;;;;;7.25;4.20;;;6.10;99.90;;;;;;5054761;28;20473;-75
2022/04/04 11:52:31;;;;;;;4.85;3.55;;;6.10;99.90;;;;;;5054229;28;20045;-76
2022/04/04 11:55:11;;;;;;;6.40;3.42;;;6.10;99.90;;;;;;5043225;28;20095;-74
2022/04/04 11:57:36;;;;;;;7.10;3.72;;;6.20;99.90;;;;;;5051089;28;20052;-74
2022/04/04 12:00:27;;;;;;;5.72;4.45;;;6.10;99.90;;;;;;5054025;28;20503;-75
2022/04/04 12:02:53;;;;;;;8.55;4.10;;;6.20;99.90;;;;;;5026891;28;20049;-76
2022/04/04 12:05:31;;;;;;;6.32;3.90;;;6.20;99.90;;;;;;5054025;28;20076;-75
2022/04/04 12:08:17;;;;;;;6.05;4.03;;;6.30;99.90;;;;;;5051790;28;20053;-74
2022/04/04 12:10:45;;;;;;;4.07;3.67;;;6.30;99.90;;;;;;5012568;28;20095;-74
2022/04/04 12:13:20;;;;;;;6.03;4.07;;;6.30;99.90;;;;;;5053825;28;20452;-75
2022/04/04 12:15:47;;;;;;;5.45;3.40;;;6.30;99.90;;;;;;5054107;28;20044;-75
2022/04/04 12:18:22;;;;;;;4.72;3.80;;;6.30;99.90;;;;;;5053772;28;20041;-75
2022/04/04 12:20:49;;;;;;;4.32;3.70;;;6.40;99.90;;;;;;5053928;28;20049;-75
2022/04/04 12:26:08;;;;;;;4.15;3.20;;;6.50;99.90;;;;;;5052995;28;20053;-76
2022/04/04 12:28:36;;;;;;;5.18;3.65;;;6.50;99.90;;;;;;5035874;28;20033;-75
2022/04/04 12:31:12;;;;;;;4.78;3.65;;;6.50;99.90;;;;;;5053390;28;20087;-76
2022/04/04 12:33:38;;;;;;;4.90;3.67;;;6.60;99.90;;;;;;5053493;28;20053;-76
2022/04/04 12:36:03;;;;;;;4.72;3.70;;;6.60;99.90;;;;;;5054234;28;20041;-76
2022/04/04 12:38:30;;;;;;;5.57;3.60;;;6.70;99.90;;;;;;5054185;28;20098;-75
2022/04/04 12:41:05;;;;;;;;;;;6.70;99.90;;;;;;5053909;28;20080;-76
2022/04/04 12:43:31;;;;;;;3.70;3.00;;;6.70;99.90;;;;;;5053724;28;19925;-74
2022/04/04 12:45:57;;;;;;;4.60;3.22;;;6.70;99.90;;;;;;5053539;28;20526;-75
2022/04/04 12:48:35;;;;;;;3.90;3.08;;;6.60;99.90;;;;;;5053515;28;20049;-74
2022/04/04 12:51:01;;;;;;;5.40;3.13;;;6.60;99.90;;;;;;5055952;28;20053;-75
2022/04/04 12:53:27;;;;;;;4.30;3.15;;;6.70;99.90;;;;;;5055773;28;20183;-75
2022/04/04 12:56:07;;;;;;;4.03;3.13;;;6.70;99.90;;;;;;5057708;28;20045;-75
2022/04/04 12:58:34;;;;;;;3.53;2.92;;;6.70;99.90;;;;;;5056499;28;20044;-76
2022/04/04 13:01:17;;;;;;;3.55;2.85;;;6.70;99.90;;;;;;5056319;28;20378;-76
2022/04/04 13:03:52;;;;;;;3.88;3.00;;;6.70;99.90;;;;;;5054831;28;20094;-75
2022/04/04 13:06:19;;;;;;;3.67;3.10;;;6.70;99.90;;;;;;5053316;28;20052;-76
2022/04/04 13:09:00;;;;;;;4.55;3.28;;;6.70;99.90;;;;;;5053196;28;20037;-74